Latest Automated Weather Stations
Site ID Site Name Temperature Humidity Wind Speed Wind Direction Precipitation Pressure Solar Radiation Last Updated
98 Science Garden, Quezon City 21°C 85% 0 km/hr N 0 mm/hr 1006.8 0 March 4, 2024, 4:20 am
5001 San Jose Synoptic Station 28°C 67% 10.8 km/hr ENE 0 mm/hr 1010.9 - March 4, 2024, 4:00 am
5006 Borongan Synop,Eastern Samar 27°C 77% 7.2 km/hr E 0 mm/hr 1012.9 4.1 March 4, 2024, 3:50 am
5008 Tampakan, South Cotobato 22°C 91% 0 km/hr N 0 mm/hr 997.1 - March 4, 2024, 4:00 am
5010 Ozamis, Misamis Occidental 21°C 72% 0 km/hr WNW 26 mm/hr 961.5 - March 4, 2024, 4:00 am
5012 Laoag, Ilocos Norte AWS 23°C 84% 0 km/hr SE 0 mm/hr 1012.2 0 March 4, 2024, 4:20 am
5013 San Enrique, Iloilo AWS 24°C 96% 3.6 km/hr NNW 0 mm/hr 1009.8 0 March 4, 2024, 4:20 am
5014 Daet, Camarines Norte AWS 24°C 96% 3.6 km/hr W 0 mm/hr 1012 0 March 4, 2024, 4:20 am
5015 Guiuan, Eastern Samar AWS 28°C 74% 7.2 km/hr NE 0 mm/hr 1066.1 11.6 March 3, 2024, 6:00 pm
5017 Batac,Ilocos Norte AWS 21°C 92% 3.6 km/hr ESE 0 mm/hr 1011.9 0 March 4, 2024, 4:20 am
5019 Bacnotan, La Union AWS 22°C 90% 0 km/hr N 0 mm/hr - 0 March 4, 2024, 4:20 am
5021 Atok, Benguet AWS 0°C 0% 0 km/hr N 0 mm/hr - - March 4, 2024, 4:20 am
5024 Lal-lo, Cagayan AWS 0°C 0% 25.2 km/hr N 0 mm/hr - 0 March 4, 2024, 4:20 am
5025 Tuguegarao, Cagayan AWS 21°C 100% 3.6 km/hr SSE 0 mm/hr 1008.8 0 March 4, 2024, 4:20 am
5026 Echague, Isabela AWS 0°C 0% 0 km/hr SE 0 mm/hr 1007.5 0 March 4, 2024, 4:20 am
5027 Bayombong,Nueva Vizcaya AWS 52°C 100% 3.6 km/hr NNE 0 mm/hr 538.1 0 March 4, 2024, 4:20 am
5032 Camiling, Tarlac AWS 22°C 83% 10.8 km/hr SSE 0 mm/hr - 0 March 4, 2024, 4:20 am
5033 Tanay, Rizal AWS 20°C 79% 10.8 km/hr E 0 mm/hr 941.6 0 March 4, 2024, 4:20 am
5036 Alabat, Quezon AWS 0°C 0% 68.4 km/hr E 0 mm/hr - 0 March 4, 2024, 4:20 am
5037 Pili Camarines Sur AWS 0°C 0% 0 km/hr N 0 mm/hr 1008.9 0 March 4, 2024, 4:20 am
5038 Guinobatan, Albay AWS 24°C 94% 7.2 km/hr SSE 1 mm/hr 1006 0 March 4, 2024, 4:20 am
5039 Virac, Catanduanes AWS 25°C 83% 0 km/hr NNE 0 mm/hr 1011.2 0 March 1, 2024, 1:30 am
5040 Tabaco,Albay AWS 0°C 0% 0 km/hr N 1 mm/hr 1013.8 0 March 4, 2024, 4:20 am
5041 Sorsogon, Sorsogon AWS 0°C 0% 7.2 km/hr N 0 mm/hr 943.1 0.7 March 4, 2024, 4:30 am
5042 Gamay, Northern Samar AWS 25°C 80% 10.8 km/hr E 0 mm/hr 1012.2 0 March 1, 2024, 2:50 am
5043 Baybay, Leyte AWS 24°C 82% 0 km/hr N 0 mm/hr 1011.1 0 March 4, 2024, 4:20 am
5047 Mambusao, Capiz AWS 0°C 0% 50.4 km/hr E 0 mm/hr 1009.1 0 March 4, 2024, 4:20 am
5048 Sibalom, Antique AWS 0°C 0% 7.2 km/hr SE 0 mm/hr 1010.1 0 March 4, 2024, 4:20 am
5052 Mambajao, Camiguin AWS 0°C 0% 7.2 km/hr ESE 0 mm/hr 1009.3 0 March 4, 2024, 4:20 am
5053 Talisayan, Misamis Oriental AWS 24°C 71% 36 km/hr E 0 mm/hr 982 0 March 4, 2024, 4:20 am
5054 Nasipit, Agusan del Norte AWS 26°C 83% 72 km/hr NNE 0 mm/hr - 0 March 2, 2024, 8:20 pm
5057 Nabunturan, Davao de Oro AWS 53°C 60% 0 km/hr N 0 mm/hr 1002.7 0 March 4, 2024, 4:20 am
5058 Tagum, Davao del Norte AWS 0°C 0% 3.6 km/hr NNW 0 mm/hr 1009.1 0 March 4, 2024, 4:20 am
5059 Kabacan, Cotabato AWS 0°C 0% 0 km/hr NW 0 mm/hr 1007.2 0 March 4, 2024, 4:20 am
5060 Tantangan, South Cotabato AWS 24°C 85% 0 km/hr SSW 0 mm/hr - 0 March 4, 2024, 4:25 am
5061 Valencia, Bukidnon AWS 21°C 84% 7.2 km/hr N 0 mm/hr 964.5 0 March 4, 2024, 4:20 am
5068 RTR Philrice, Agusan del Norte AWS 22°C 97% 0 km/hr N 0 mm/hr - 0 March 4, 2024, 4:20 am
5072 Naval, Biliran AWS 24°C 78% 0 km/hr ENE 0 mm/hr 1005.2 0 March 4, 2024, 4:20 am
5077 Apayao AWS 0°C 0% 0 km/hr N 0 mm/hr 1011.5 0 March 4, 2024, 4:25 am
5079 San Jacinto, Ticao Island, Masbate AWS 23°C 91% 0 km/hr NW 0 mm/hr 1001.8 0 March 4, 2024, 4:20 am
5081 Hinunangan, Southern Leyte AWS 22°C 100% 0 km/hr SSW 0 mm/hr 1011.2 0.5 March 4, 2024, 4:25 am
5102 Rizal, Palawan AWS 21°C 79% 0 km/hr NNE 0 mm/hr 998.2 0 March 4, 2024, 4:20 am
5105 Aparri, Cagayan AWS 0°C 0% 0 km/hr N 0 mm/hr 1013.1 0 March 4, 2024, 4:20 am
5107 Baler Synoptic Station AWS 22°C 92% 7.2 km/hr W 0 mm/hr 992.9 0.4 March 4, 2024, 4:20 am
5110 Dagupan Pangasinan AWS 0°C 0% 0 km/hr N 0 mm/hr 1011.6 0 March 4, 2024, 4:25 am
5111 Hacienda Luisita, Tarlac AWS 20°C 90% 3.6 km/hr WNW 0 mm/hr 1008.1 0 March 4, 2024, 4:20 am
5112 Tagaytay AWS 0°C 0% 0 km/hr N 0 mm/hr 928.7 0 March 4, 2024, 4:20 am
5113 Ambulong Tanauan Batangas AWS 24°C 76% 0 km/hr E 0 mm/hr 1011.8 0 March 4, 2024, 4:20 am
5114 Tayabas, Quezon AWS 24°C 75% 0 km/hr NNE 0 mm/hr 994.6 0 March 4, 2024, 4:20 am
5115 Infanta, Quezon AWS 26°C 80% 3.6 km/hr NNE 0 mm/hr - 0 March 4, 2024, 4:20 am
5116 Taal, Batangas AWS 24°C 71% 3.6 km/hr NE 0 mm/hr 1001.2 0 March 4, 2024, 4:20 am
5120 Puerto Galera, Mindoro Oriental AWS 24°C 79% 7.2 km/hr ENE 0 mm/hr 1010.9 0.5 March 4, 2024, 4:20 am
5121 Sta Cruz, Mindoro Occidental AWS 21°C 80% 0 km/hr NE 0 mm/hr 1009.1 0 March 4, 2024, 4:20 am
5122 Calapan, Mindoro Oriental AWS 0°C 0% - km/hr N - mm/hr - - March 3, 2024, 5:30 pm
5123 Coron, Palawan AWS 26°C 80% 0 km/hr N 0 mm/hr 1021 0 March 4, 2024, 4:20 am
5124 Puerto Princesa, Palawan AWS 23°C 82% 0 km/hr WSW 0 mm/hr 1008.3 0 March 4, 2024, 4:20 am
5125 Cuyo, Palawan AWS 0°C 0% 3.6 km/hr ENE 0 mm/hr 1010.4 0 March 4, 2024, 4:20 am
5126 Juban Sorsogon Synoptic 23°C 94% 0 km/hr NNE 0 mm/hr 799.8 0 March 4, 2024, 4:20 am
5128 Legazpi AWS 0°C 0% 0 km/hr E 0 mm/hr 1010.8 3.4 March 4, 2024, 3:20 am
5130 Catarman Northern Samar AWS 23°C 90% 0 km/hr SSW 0 mm/hr 978.5 0 March 4, 2024, 4:20 am
5131 Tacloban, Leyte AWS 25°C 79% 7.2 km/hr E 0 mm/hr 1011.7 0 March 4, 2024, 4:20 am
5132 Maasin, Southern Leyte AWS 24°C 80% 3.6 km/hr ESE 0 mm/hr 1002.8 0 March 4, 2024, 4:20 am
5135 Dalaguete, Cebu AWS 15°C 66% 7.2 km/hr ENE 0 mm/hr 925.9 0 March 4, 2024, 4:20 am
5136 Iloilo Radar Station AWS 24°C 85% 3.6 km/hr N 0 mm/hr 1010.2 0 March 4, 2024, 4:20 am
5138 Mactan, Cebu AWS 24°C 76% 0 km/hr N 0 mm/hr 795.9 0 March 4, 2024, 4:25 am
5139 Argao, Cebu AWS 23°C 83% 0 km/hr N 0 mm/hr 992.6 0 March 4, 2024, 4:10 am
5140 Surigao Synoptic Station AWS 0°C 0% 7.2 km/hr SSW 0 mm/hr 1006.8 0 March 4, 2024, 4:20 am
5141 Butuan, Agusan del Norte AWS 18°C 94% 3.6 km/hr S 0 mm/hr 1009.5 0 March 4, 2024, 4:20 am
5142 Hinatuan, Surigao del Sur 0°C 0% 0 km/hr N 0 mm/hr 1051.3 0 March 4, 2024, 4:20 am
5143 Sindangan Zamboanga del Norte 22°C 82% 3.6 km/hr ENE 0 mm/hr 1009.5 0 March 4, 2024, 4:20 am
5144 Malaybalay Bukidnon AWS 17°C 92% 0 km/hr NNW 0 mm/hr 942.4 0 March 4, 2024, 4:20 am
5145 Maasim, Sarangani AWS 26°C 54% 14.4 km/hr NE 0 mm/hr 1009.7 0 March 4, 2024, 4:20 am
5147 Davao City AWS 23°C 73% 3.6 km/hr NNE 0 mm/hr 1008.9 0 March 4, 2024, 4:20 am
5148 Bago Oshiro, Talomo, Davao City AWS 23°C 70% 3.6 km/hr N 0 mm/hr 999.5 0 March 4, 2024, 4:20 am
5149 Gen. Santos City AWS 22°C 75% 7.2 km/hr NNW 0 mm/hr 995 0 March 4, 2024, 4:20 am
5150 Kiamba, Sarangani AWS 0°C 0% 0 km/hr NNW 0 mm/hr - 0 March 4, 2024, 4:20 am
5151 Zamboanga City AWS 23°C 64% 3.6 km/hr ENE 0 mm/hr 1009.2 0 March 4, 2024, 4:20 am
5154 Jomalig, Quezon AWS 0°C 0% 7.2 km/hr E 0 mm/hr 1012.1 0 March 4, 2024, 4:20 am
5157 Bangui, Ilocos Norte 0°C 0% 3.6 km/hr SE 0 mm/hr 997.8 0 March 4, 2024, 4:20 am
5158 Tabuk, Kalinga AWS 0°C 0% 0 km/hr N 0 mm/hr 960.4 0 March 4, 2024, 4:20 am
5160 Dilasag, Aurora AWS 0°C 0% 3.6 km/hr WSW 0 mm/hr 1011 0 March 4, 2024, 4:10 am
5161 Hermosa, Bataan AWS 20°C 79% 0 km/hr WNW 0 mm/hr 1005.6 0 March 4, 2024, 4:20 am
5162 Mulanay, Quezon AWS 22°C 90% 3.6 km/hr N 0 mm/hr 1007.7 0 March 4, 2024, 4:20 am
5163 Garchitorena, Camarines Sur AWS 0°C 0% 0 km/hr NE 0 mm/hr 1010.2 0 March 4, 2024, 4:20 am
5164 Villaba, Leyte AWS 23°C 92% 0 km/hr NE 0 mm/hr 1011.2 0 March 4, 2024, 4:20 am
5166 Tuburan, Cebu AWS 23°C 88% 7.2 km/hr NE 0 mm/hr 1004.8 0 March 4, 2024, 4:10 am
5167 Camotes Island, Poro, Cebu AWS 25°C 74% 3.6 km/hr NNE 0 mm/hr 1010.9 0 March 4, 2024, 4:20 am
5169 Himamaylan, Negros Occidental AWS 23°C 77% 0 km/hr ESE 0 mm/hr 1007.3 0 March 4, 2024, 4:20 am
5170 Cauayan, Negros Occidental AWS 20°C 90% 0 km/hr SSE 0 mm/hr 1008.7 0 March 4, 2024, 4:20 am
5172 Dumaguete Synop Station 25°C 73% 3.6 km/hr NW 0 mm/hr 1009.6 0 March 4, 2024, 4:20 am
5174 Lanuza, Surigao del Sur AWS 21°C 92% 3.6 km/hr SSW 0 mm/hr 1012.9 0 March 4, 2024, 4:20 am
5175 Loreto, Agusan del Sur AWS 22°C 94% 0 km/hr WSW 0 mm/hr 1009 0 March 4, 2024, 4:20 am
5176 Baganga, Davao Oriental AWS 21°C 86% 10.8 km/hr W 0 mm/hr - 0 March 4, 2024, 4:20 am
5177 Don Marcelino, Davao Occidental AWS 23°C 79% 7.2 km/hr NW 0 mm/hr 1009.2 0 March 4, 2024, 4:20 am
5178 Esperanza, Sultan Kudarat AWS 24°C 77% 0 km/hr N 0 mm/hr 1005.1 0 March 4, 2024, 4:20 am
5179 Senator Ninoy Aquino, Sultan Kudarat AWS 19°C 92% 3.6 km/hr W 0 mm/hr 932.1 0 March 4, 2024, 4:20 am
5180 Libungan, North Cotabato AWS 24°C 67% 7.2 km/hr SW 0 mm/hr 997.4 0 March 4, 2024, 4:20 am
5181 Glan, Sarangani AWS 23°C 80% 3.6 km/hr E 0 mm/hr 903 0 March 4, 2024, 4:20 am
5182 Lanise, Claveria, Mis. Oriental 18°C 77% 3.6 km/hr NE 0 mm/hr 922.4 0 March 4, 2024, 4:20 am
5183 Laguindingan, Misamis Oriental AWS 23°C 72% 10.8 km/hr SSE 0 mm/hr 1003 0 March 4, 2024, 4:20 am
5184 Musuan, Bukidnon AWS 22°C 72% 10.8 km/hr N 0 mm/hr 977 0 March 4, 2024, 4:20 am
5185 Lantapan, Bukidnon AWS 17°C 90% 3.6 km/hr WNW 0 mm/hr 947.6 0 March 4, 2024, 4:20 am
5186 Kabasalan, Zamboanga Sibugay AWS 0°C 20% 3.6 km/hr ENE 0 mm/hr 1008.4 0 March 4, 2024, 4:10 am
5187 La Libertad, Zamboanga del Norte AWS 20°C 86% 3.6 km/hr S 0 mm/hr 990.4 0 March 4, 2024, 4:20 am
5188 Sirawai, Zamboanga del Norte AWS 20°C 86% 7.2 km/hr ENE 0 mm/hr 1008.9 0 March 4, 2024, 4:20 am
5189 Pagadian City, Zamboanga del Sur AWS 24°C 70% 0 km/hr N 0 mm/hr 799.4 0 March 4, 2024, 4:20 am
5190 Dumingag, Zamboanga del Sur AWS 20°C 90% 0 km/hr N 0 mm/hr 1003.7 0 March 4, 2024, 4:20 am
5191 Pitogo, Zamboanga del Sur AWS 23°C 78% 0 km/hr ENE 0 mm/hr 1008.5 0 March 4, 2024, 4:20 am